Estación Meteorológica Peña el Pijo (Robertgarden) [ 01/30/23 15:20:28 CET ]

Fecha Hora Presion(HPa) Temp (°C) Humedad % Rocio (°C) Viento ( m/s) Direccion Lluvia 1Hora(mm) Lluvia 24H(mm) LLuvia Total(mm)
2012-May-30 01:01:13 1011.900 12.3 65 5.9         159.54
2012-May-30 02:01:12 1011.900 11.4 67 5.5         159.54
2012-May-30 03:03:14 1011.800 11.0 69 5.6         159.54
2012-May-30 04:01:13 1011.500 11.3 67 5.4         159.54
2012-May-30 05:01:19 1011.700 11.1 70 5.9         159.54
2012-May-30 06:01:16 1011.900 10.5 72 5.7         159.54
2012-May-30 07:01:16 1012.400 10.0 74 5.6         159.54
2012-May-30 08:01:14 1012.400 11.8 73 7.1         159.54
2012-May-30 09:01:17 1012.700 14.3 71 9.1         159.54
2012-May-30 10:01:13 1012.900 20.4 54 10.8         159.54
2012-May-30 11:01:14 1012.900 24.9 40 10.4         159.54
2012-May-30 12:01:15 1013.000 29.4 23 5.9 2.5 SSW     159.54
2012-May-30 13:01:11 1013.300 29.3 22 5.2         159.54
2012-May-30 14:01:12 1013.300 29.1 21 4.5 2.4 NE     159.54
2012-May-30 15:01:21 1012.900 29.8 21 5.0         159.54
2012-May-30 16:01:17 1013.000 30.6 19 4.2 0.3 NNE     159.54
2012-May-30 17:01:24 1012.700 30.9 20 5.4 0.9 SW     159.54
2012-May-30 18:01:16 1012.600 29.3 21 4.6         159.54
2012-May-30 19:01:11 1012.500 26.8 23 3.8         159.54
2012-May-30 20:01:17 1012.900 24.9 27 4.5 0.6 NNE     159.54
2012-May-30 21:01:14 1013.000 22.6 30 4.2         159.54
2012-May-30 22:01:17 1013.800 19.8 36 4.2         159.54
2012-May-30 23:01:14 1014.700 16.8 45 4.7         159.54

Temperatura Máxima:30°    Temperatura Mínima:10°
Presión Máxima:1014.700 Hpa    Presión Mínima:1011.500 Hpa


Volver